Time;durP1;ratioP1;P1;durP2;ratioP2;P2;SDS_P1;SDS_P2;PMS_P1;PMS_P2;Temp;Humidity;BMP_temperature;BMP_pressure;BME280_temperature;BME280_humidity;BME280_pressure;Samples;Min_cycle;Max_cycle;Signal;HPM_P1;HPM_P2
2024/02/29 00:02:03;;;;;;;41.28;26.45;;;7.90;99.90;;;;;;5019465;28;20698;-63
2024/02/29 00:04:29;;;;;;;39.00;25.75;;;7.90;99.90;;;;;;5020967;28;20187;-65
2024/02/29 00:06:55;;;;;;;40.72;26.02;;;7.90;99.90;;;;;;5020793;28;20580;-65
2024/02/29 00:09:21;;;;;;;44.22;27.10;;;7.90;99.90;;;;;;5020574;28;20200;-64
2024/02/29 00:11:47;;;;;;;41.97;25.65;;;8.00;99.90;;;;;;5020662;28;20633;-64
2024/02/29 00:14:13;;;;;;;38.92;26.02;;;8.00;99.90;;;;;;5020926;28;20283;-63
2024/02/29 00:16:48;;;;;;;37.60;25.35;;;8.00;99.90;;;;;;5020295;28;20563;-63
2024/02/29 00:19:14;;;;;;;36.72;24.70;;;8.00;99.90;;;;;;5034718;28;20203;-65
2024/02/29 00:21:40;;;;;;;44.47;26.38;;;8.00;99.90;;;;;;5021332;28;20200;-65
2024/02/29 00:24:07;;;;;;;39.45;25.10;;;8.00;99.90;;;;;;5021119;28;20195;-66
2024/02/29 00:26:33;;;;;;;43.13;26.23;;;8.10;99.90;;;;;;5020654;28;20211;-64
2024/02/29 00:29:01;;;;;;;41.17;26.83;;;8.00;99.90;;;;;;5020423;28;20192;-65
2024/02/29 00:31:27;;;;;;;45.38;25.80;;;8.00;99.90;;;;;;5020929;28;20525;-64
2024/02/29 00:33:52;;;;;;;41.97;26.35;;;8.00;99.90;;;;;;5019244;28;20203;-62
2024/02/29 00:36:19;;;;;;;43.38;27.27;;;8.00;99.90;;;;;;5020462;28;20176;-64
2024/02/29 00:38:45;;;;;;;39.30;26.08;;;7.90;99.90;;;;;;5020844;28;20180;-65
2024/02/29 00:41:14;;;;;;;46.33;25.70;;;7.90;99.90;;;;;;5035565;28;20719;-63
2024/02/29 00:43:41;;;;;;;40.53;26.17;;;7.90;99.90;;;;;;5020567;28;20195;-65
2024/02/29 00:46:07;;;;;;;41.60;25.95;;;7.90;99.90;;;;;;5023702;28;20332;-65
2024/02/29 00:48:33;;;;;;;41.17;25.40;;;7.80;99.90;;;;;;5023873;28;20215;-65
2024/02/29 00:50:58;;;;;;;41.08;24.75;;;7.80;99.90;;;;;;5024236;28;20191;-65
2024/02/29 00:53:24;;;;;;;42.75;25.88;;;7.70;99.90;;;;;;5024291;28;20184;-66
2024/02/29 00:55:50;;;;;;;43.80;24.63;;;7.70;99.90;;;;;;5023704;28;20199;-63
2024/02/29 00:58:16;;;;;;;37.88;24.08;;;7.70;99.90;;;;;;5023544;28;20237;-63
2024/02/29 01:00:41;;;;;;;39.80;25.40;;;7.60;99.90;;;;;;5023587;28;20202;-64
2024/02/29 01:03:07;;;;;;;43.47;25.05;;;7.60;99.90;;;;;;5023603;28;20192;-63
2024/02/29 01:05:33;;;;;;;38.03;24.23;;;7.60;99.90;;;;;;5038941;28;20277;-63
2024/02/29 01:07:59;;;;;;;39.38;22.55;;;7.60;99.90;;;;;;5038708;28;20211;-64
2024/02/29 01:10:25;;;;;;;37.08;23.70;;;7.60;99.90;;;;;;5023214;28;20714;-63
2024/02/29 01:12:50;;;;;;;37.35;23.63;;;7.60;99.90;;;;;;5023612;28;20199;-63
2024/02/29 01:15:16;;;;;;;38.75;23.48;;;7.60;99.90;;;;;;5023751;28;20188;-63
2024/02/29 01:17:42;;;;;;;33.55;21.67;;;7.60;99.90;;;;;;5023296;28;20273;-63
2024/02/29 01:20:09;;;;;;;35.50;22.27;;;7.60;99.90;;;;;;5023299;28;20962;-65
2024/02/29 01:22:35;;;;;;;36.85;22.85;;;7.70;99.90;;;;;;5023501;28;20184;-64
2024/02/29 01:25:05;;;;;;;38.17;23.08;;;7.70;99.90;;;;;;5023234;28;20654;-65
2024/02/29 01:27:32;;;;;;;34.20;20.52;;;7.70;99.90;;;;;;5023306;28;20234;-63
2024/02/29 01:29:58;;;;;;;37.15;22.75;;;7.70;99.90;;;;;;5023697;28;20183;-63
2024/02/29 01:32:23;;;;;;;38.30;23.08;;;7.70;99.90;;;;;;5023459;28;20683;-63
2024/02/29 01:34:49;;;;;;;33.17;21.17;;;7.80;99.90;;;;;;5038462;28;20192;-63
2024/02/29 01:37:15;;;;;;;34.20;21.80;;;7.80;99.90;;;;;;5022731;28;20219;-63
2024/02/29 01:39:43;;;;;;;34.00;22.63;;;7.80;99.90;;;;;;5022717;28;20204;-62
2024/02/29 01:42:10;;;;;;;33.92;21.75;;;7.80;99.90;;;;;;5023125;28;20206;-65
2024/02/29 01:44:58;;;;;;;35.40;21.67;;;7.80;99.90;;;;;;5022808;28;20582;-63
2024/02/29 01:47:25;;;;;;;34.40;20.67;;;7.80;99.90;;;;;;5022731;28;20266;-64
2024/02/29 01:49:56;;;;;;;35.00;21.05;;;7.70;99.90;;;;;;5023396;28;20250;-63
2024/02/29 01:52:25;;;;;;;33.75;21.15;;;7.80;99.90;;;;;;5022896;28;20593;-63
2024/02/29 01:54:50;;;;;;;34.05;20.83;;;7.80;99.90;;;;;;5022847;28;20175;-64
2024/02/29 01:57:17;;;;;;;35.90;20.55;;;7.90;99.90;;;;;;5036693;28;20198;-63
2024/02/29 01:59:45;;;;;;;32.08;20.70;;;7.80;99.90;;;;;;5022840;28;21199;-64
2024/02/29 02:02:11;;;;;;;32.10;20.58;;;7.90;99.90;;;;;;5022769;28;20186;-65
2024/02/29 02:04:37;;;;;;;32.67;20.50;;;7.90;99.90;;;;;;5022358;28;20191;-62
2024/02/29 02:07:04;;;;;;;34.72;20.63;;;7.90;99.90;;;;;;5021835;28;20269;-64
2024/02/29 02:09:30;;;;;;;32.10;20.38;;;7.90;99.90;;;;;;5022565;28;20190;-63
2024/02/29 02:11:56;;;;;;;31.13;19.65;;;7.90;99.90;;;;;;5022388;28;20191;-61
2024/02/29 02:14:22;;;;;;;30.98;19.85;;;7.90;99.90;;;;;;5022575;28;20207;-63
2024/02/29 02:16:48;;;;;;;30.88;20.02;;;7.90;99.90;;;;;;5021618;28;20241;-63
2024/02/29 02:19:16;;;;;;;29.05;20.00;;;7.90;99.90;;;;;;5022458;28;20577;-63
2024/02/29 02:21:45;;;;;;;32.83;21.70;;;7.90;99.90;;;;;;5022498;28;20207;-64
2024/02/29 02:24:11;;;;;;;33.83;22.05;;;7.90;99.90;;;;;;5022233;28;20629;-64
2024/02/29 02:26:36;;;;;;;32.08;20.35;;;7.90;99.90;;;;;;5021744;28;20208;-64
2024/02/29 02:29:04;;;;;;;35.22;21.02;;;8.00;99.90;;;;;;5022638;28;20319;-63
2024/02/29 02:31:30;;;;;;;29.98;20.30;;;8.00;99.90;;;;;;5022236;28;20196;-65
2024/02/29 02:33:56;;;;;;;34.03;21.20;;;7.90;99.90;;;;;;5022439;28;20199;-62
2024/02/29 02:36:22;;;;;;;35.08;21.15;;;8.00;99.90;;;;;;5021766;28;20245;-64
2024/02/29 02:38:48;;;;;;;30.50;20.83;;;8.00;99.90;;;;;;5020297;28;20210;-63
2024/02/29 02:41:14;;;;;;;34.08;20.33;;;8.00;99.90;;;;;;5021973;28;20206;-63
2024/02/29 02:43:40;;;;;;;34.33;20.80;;;8.00;99.90;;;;;;5021770;28;20676;-63
2024/02/29 02:46:05;;;;;;;30.15;20.20;;;7.90;99.90;;;;;;5021304;28;20272;-63
2024/02/29 02:48:31;;;;;;;32.47;20.60;;;8.00;99.90;;;;;;5021526;28;20256;-64
2024/02/29 02:50:57;;;;;;;34.58;20.17;;;8.00;99.90;;;;;;5021485;28;20188;-64
2024/02/29 02:53:22;;;;;;;32.50;20.67;;;8.00;99.90;;;;;;5021869;28;20188;-64
2024/02/29 02:55:48;;;;;;;35.25;21.05;;;8.00;99.90;;;;;;5021366;28;20249;-63
2024/02/29 02:58:14;;;;;;;31.40;21.20;;;8.00;99.90;;;;;;5021676;28;20202;-61
2024/02/29 03:00:40;;;;;;;31.35;20.00;;;8.00;99.90;;;;;;5021346;28;20619;-64
2024/02/29 03:03:05;;;;;;;31.38;19.75;;;8.00;99.90;;;;;;5021670;28;20207;-62
2024/02/29 03:05:31;;;;;;;35.50;21.02;;;8.00;99.90;;;;;;5021471;28;20199;-62
2024/02/29 03:07:58;;;;;;;36.15;20.92;;;8.00;99.90;;;;;;5021141;28;20212;-62
2024/02/29 03:10:23;;;;;;;32.15;20.35;;;8.00;99.90;;;;;;5021908;28;21832;-63
2024/02/29 03:12:49;;;;;;;28.80;19.52;;;8.00;99.90;;;;;;5021052;28;20191;-62
2024/02/29 03:15:15;;;;;;;33.28;19.90;;;8.10;99.90;;;;;;5021409;28;20180;-63
2024/02/29 03:17:41;;;;;;;35.22;21.08;;;8.00;99.90;;;;;;5021127;28;20207;-62
2024/02/29 03:20:14;;;;;;;29.98;19.80;;;8.00;99.90;;;;;;5021687;28;20202;-63
2024/02/29 03:22:40;;;;;;;37.47;20.58;;;8.00;99.90;;;;;;5036749;28;20227;-63
2024/02/29 03:25:06;;;;;;;31.65;19.83;;;8.10;99.90;;;;;;5021270;28;20303;-63
2024/02/29 03:27:32;;;;;;;31.17;19.90;;;8.00;99.90;;;;;;5007732;28;20696;-64
2024/02/29 03:29:59;;;;;;;30.85;18.25;;;8.00;99.90;;;;;;5021323;28;20234;-65
2024/02/29 03:32:25;;;;;;;32.83;20.77;;;8.00;99.90;;;;;;5021643;28;20196;-65
2024/02/29 03:34:51;;;;;;;35.55;20.48;;;8.00;99.90;;;;;;5021319;28;20649;-64
2024/02/29 03:37:18;;;;;;;32.67;20.20;;;8.00;99.90;;;;;;5021480;28;20198;-62
2024/02/29 03:39:44;;;;;;;28.20;19.38;;;8.00;99.90;;;;;;5019591;28;20202;-65
2024/02/29 03:42:11;;;;;;;32.60;19.55;;;8.00;99.90;;;;;;5034710;28;20199;-64
2024/02/29 03:44:37;;;;;;;30.60;19.23;;;8.00;99.90;;;;;;5020005;28;20187;-66
2024/02/29 03:47:04;;;;;;;30.75;18.55;;;7.90;99.90;;;;;;5020164;28;20610;-64
2024/02/29 03:49:30;;;;;;;34.45;20.08;;;7.90;99.90;;;;;;5020754;28;20191;-65
2024/02/29 03:51:56;;;;;;;35.05;18.92;;;7.90;99.90;;;;;;5021510;28;20179;-64
2024/02/29 03:54:21;;;;;;;33.47;20.23;;;7.90;99.90;;;;;;5021523;28;20214;-63
2024/02/29 03:56:47;;;;;;;30.23;19.50;;;7.90;99.90;;;;;;5021379;28;20192;-64
2024/02/29 03:59:13;;;;;;;31.35;18.70;;;7.90;99.90;;;;;;5021293;28;20223;-65
2024/02/29 04:01:38;;;;;;;32.85;19.13;;;7.90;99.90;;;;;;5036141;28;20622;-64
2024/02/29 04:04:05;;;;;;;31.42;19.08;;;7.90;99.90;;;;;;5036570;28;20219;-62
2024/02/29 04:06:31;;;;;;;29.20;17.67;;;7.90;99.90;;;;;;5021052;28;20632;-63
2024/02/29 04:08:57;;;;;;;30.42;18.75;;;7.90;99.90;;;;;;5019547;28;20202;-64
2024/02/29 04:11:22;;;;;;;32.15;18.83;;;7.80;99.90;;;;;;5019352;28;20279;-64
2024/02/29 04:13:48;;;;;;;29.17;19.08;;;7.90;99.90;;;;;;5020692;28;20259;-65
2024/02/29 04:16:14;;;;;;;30.33;17.73;;;7.90;99.90;;;;;;5021001;28;20274;-64
2024/02/29 04:18:40;;;;;;;25.02;16.48;;;7.90;99.90;;;;;;5021127;28;20191;-64
2024/02/29 04:21:05;;;;;;;28.38;17.80;;;7.90;99.90;;;;;;5024591;28;20187;-64
2024/02/29 04:23:31;;;;;;;28.33;17.33;;;7.90;99.90;;;;;;5024634;28;20199;-64
2024/02/29 04:25:57;;;;;;;29.20;18.13;;;7.90;99.90;;;;;;5024313;28;20257;-64
2024/02/29 04:28:22;;;;;;;30.50;18.27;;;7.90;99.90;;;;;;5024629;28;20207;-64
2024/02/29 04:30:48;;;;;;;31.42;17.35;;;7.90;99.90;;;;;;5024224;28;20999;-64
2024/02/29 04:33:14;;;;;;;27.35;16.83;;;7.90;99.90;;;;;;5024285;28;20196;-63
2024/02/29 04:35:40;;;;;;;30.83;17.80;;;7.90;99.90;;;;;;5024706;28;20734;-63
2024/02/29 04:38:06;;;;;;;28.75;18.52;;;7.90;99.90;;;;;;5022781;28;20257;-63
2024/02/29 04:40:31;;;;;;;26.85;17.15;;;7.80;99.90;;;;;;5024098;28;20179;-64
2024/02/29 04:42:57;;;;;;;32.55;18.30;;;7.90;99.90;;;;;;5023973;28;20184;-63
2024/02/29 04:45:24;;;;;;;29.83;18.02;;;7.80;99.90;;;;;;5024377;28;20227;-63
2024/02/29 04:47:50;;;;;;;26.52;17.27;;;7.80;99.90;;;;;;5039442;28;20227;-64
2024/02/29 04:50:16;;;;;;;26.98;18.30;;;7.80;99.90;;;;;;5023663;28;20184;-64
2024/02/29 04:52:42;;;;;;;29.85;17.83;;;7.80;99.90;;;;;;5024253;28;20660;-63
2024/02/29 04:55:08;;;;;;;28.73;18.25;;;7.80;99.90;;;;;;5024134;28;21130;-63
2024/02/29 04:57:35;;;;;;;32.45;18.70;;;7.80;99.90;;;;;;5024066;28;20202;-64
2024/02/29 05:00:01;;;;;;;30.13;17.85;;;7.80;99.90;;;;;;5023937;28;20404;-64
2024/02/29 05:02:26;;;;;;;32.50;17.80;;;7.80;99.90;;;;;;5023942;28;20200;-65
2024/02/29 05:04:53;;;;;;;30.23;17.95;;;7.80;99.90;;;;;;5023993;28;20765;-64
2024/02/29 05:07:21;;;;;;;28.48;18.55;;;7.80;99.90;;;;;;5023629;28;20559;-64
2024/02/29 05:09:46;;;;;;;32.75;17.70;;;7.80;99.90;;;;;;5023428;28;20188;-63
2024/02/29 05:12:12;;;;;;;30.17;17.48;;;7.80;99.90;;;;;;5023335;28;20559;-62
2024/02/29 05:14:38;;;;;;;34.85;18.17;;;7.90;99.90;;;;;;5023727;28;20191;-64
2024/02/29 05:17:04;;;;;;;31.05;18.70;;;7.80;99.90;;;;;;5038747;28;20199;-62
2024/02/29 05:19:30;;;;;;;31.33;18.50;;;7.80;99.90;;;;;;5023414;28;20227;-63
2024/02/29 05:21:55;;;;;;;27.50;17.15;;;7.80;99.90;;;;;;5023854;28;20192;-63
2024/02/29 05:24:21;;;;;;;29.63;17.73;;;7.80;99.90;;;;;;5037015;28;20253;-63
2024/02/29 05:26:48;;;;;;;31.63;18.35;;;7.80;99.90;;;;;;5038630;28;20216;-63
2024/02/29 05:29:14;;;;;;;29.00;17.23;;;7.80;99.90;;;;;;5023038;28;20463;-63
2024/02/29 05:31:39;;;;;;;28.27;17.30;;;7.80;99.90;;;;;;5009474;28;20307;-65
2024/02/29 05:34:05;;;;;;;30.15;17.88;;;7.80;99.90;;;;;;5023164;28;20265;-65
2024/02/29 05:36:31;;;;;;;26.08;16.38;;;7.80;99.90;;;;;;5023443;28;20237;-62
2024/02/29 05:38:57;;;;;;;26.83;16.73;;;7.80;99.90;;;;;;5023086;28;20278;-62
2024/02/29 05:41:23;;;;;;;29.70;17.73;;;7.80;99.90;;;;;;5023275;28;20307;-63
2024/02/29 05:43:50;;;;;;;30.10;17.60;;;7.80;99.90;;;;;;5023206;28;20257;-64
2024/02/29 05:46:15;;;;;;;27.75;17.13;;;7.70;99.90;;;;;;5022542;28;20375;-65
2024/02/29 05:48:41;;;;;;;29.65;17.55;;;7.80;99.90;;;;;;5023025;28;20227;-65
2024/02/29 05:51:08;;;;;;;28.88;17.23;;;7.80;99.90;;;;;;5022518;28;20226;-65
2024/02/29 05:53:34;;;;;;;27.08;17.02;;;7.80;99.90;;;;;;5023021;28;20203;-64
2024/02/29 05:55:59;;;;;;;26.95;16.70;;;7.80;99.90;;;;;;5022495;28;20191;-66
2024/02/29 05:58:30;;;;;;;27.75;17.15;;;7.80;99.90;;;;;;5022680;28;20570;-65
2024/02/29 06:00:56;;;;;;;25.15;16.10;;;7.90;99.90;;;;;;5023043;28;20203;-65
2024/02/29 06:03:22;;;;;;;30.85;17.40;;;7.80;99.90;;;;;;5021909;28;20204;-63
2024/02/29 06:05:48;;;;;;;29.23;17.33;;;7.80;99.90;;;;;;5023635;28;20246;-64
2024/02/29 06:08:14;;;;;;;28.15;17.20;;;7.80;99.90;;;;;;5022465;28;21004;-64
2024/02/29 06:10:40;;;;;;;29.13;17.63;;;7.80;99.90;;;;;;5022305;28;20280;-63
2024/02/29 06:13:06;;;;;;;26.02;16.15;;;7.80;99.90;;;;;;5022542;28;20275;-64
2024/02/29 06:15:32;;;;;;;30.90;17.02;;;7.80;99.90;;;;;;5037484;28;20203;-65
2024/02/29 06:17:57;;;;;;;26.77;15.82;;;7.80;99.90;;;;;;5021833;28;20281;-64
2024/02/29 06:20:23;;;;;;;29.73;16.20;;;7.80;99.90;;;;;;5021742;28;21323;-62
2024/02/29 06:22:49;;;;;;;24.73;16.02;;;7.80;99.90;;;;;;5022614;28;20215;-64
2024/02/29 06:25:16;;;;;;;28.65;15.57;;;7.80;99.90;;;;;;5021990;28;21139;-62
2024/02/29 06:27:41;;;;;;;24.83;15.30;;;7.80;99.90;;;;;;5021867;28;20262;-70
2024/02/29 06:30:08;;;;;;;27.08;16.15;;;7.70;99.90;;;;;;5037049;28;20229;-69
2024/02/29 06:32:40;;;;;;;28.20;16.17;;;7.70;99.90;;;;;;5021845;28;20707;-72
2024/02/29 06:35:09;;;;;;;25.27;15.57;;;7.70;99.90;;;;;;5012690;28;20228;-69
2024/02/29 06:37:34;;;;;;;27.15;16.52;;;7.70;99.90;;;;;;5021758;28;20194;-70
2024/02/29 06:40:00;;;;;;;25.83;14.98;;;7.70;99.90;;;;;;5021195;28;20192;-72
2024/02/29 06:42:26;;;;;;;27.35;15.73;;;7.70;99.90;;;;;;5020856;28;20188;-67
2024/02/29 06:44:52;;;;;;;25.05;16.30;;;7.60;99.90;;;;;;5036402;28;20184;-64
2024/02/29 06:47:18;;;;;;;24.85;15.77;;;7.70;99.90;;;;;;5001651;28;21207;-72
2024/02/29 06:49:44;;;;;;;25.20;15.73;;;7.70;99.90;;;;;;5001698;28;20668;-69
2024/02/29 06:52:09;;;;;;;27.95;16.50;;;7.70;99.90;;;;;;5000079;28;20784;-69
2024/02/29 06:54:35;;;;;;;27.33;16.42;;;7.70;99.90;;;;;;5001531;28;20185;-68
2024/02/29 06:57:02;;;;;;;26.48;16.50;;;7.70;99.90;;;;;;4999969;28;20560;-62
2024/02/29 06:59:28;;;;;;;25.88;15.40;;;7.70;99.90;;;;;;5000888;28;20295;-64
2024/02/29 07:01:54;;;;;;;27.70;16.80;;;7.70;99.90;;;;;;5002332;28;20204;-67
2024/02/29 07:04:19;;;;;;;27.38;16.95;;;7.70;99.90;;;;;;5001156;28;20206;-65
2024/02/29 07:06:46;;;;;;;26.88;16.67;;;7.70;99.90;;;;;;5000999;28;20275;-64
2024/02/29 07:09:12;;;;;;;26.73;15.73;;;7.70;99.90;;;;;;5000627;28;20283;-64
2024/02/29 07:11:38;;;;;;;28.20;16.92;;;7.80;99.90;;;;;;5001298;28;21477;-68
2024/02/29 07:14:04;;;;;;;27.63;16.92;;;7.70;99.90;;;;;;5001097;28;20727;-70
2024/02/29 07:16:32;;;;;;;28.50;17.02;;;7.80;99.90;;;;;;5000884;28;20196;-68
2024/02/29 07:18:58;;;;;;;28.48;16.45;;;7.80;99.90;;;;;;5001509;28;20193;-63
2024/02/29 07:21:24;;;;;;;25.00;16.33;;;7.80;99.90;;;;;;5000118;28;20556;-72
2024/02/29 07:23:49;;;;;;;27.85;16.67;;;7.80;99.90;;;;;;5001576;28;20287;-66
2024/02/29 07:26:15;;;;;;;25.85;16.70;;;7.80;99.90;;;;;;4998170;28;20192;-62
2024/02/29 07:28:41;;;;;;;27.00;17.10;;;7.80;99.90;;;;;;4998907;28;20282;-65
2024/02/29 07:31:07;;;;;;;26.88;15.85;;;7.90;99.90;;;;;;5001174;28;20199;-64
2024/02/29 07:33:35;;;;;;;23.13;15.48;;;7.90;99.90;;;;;;5000017;28;20253;-65
2024/02/29 07:36:01;;;;;;;28.98;17.70;;;7.90;99.90;;;;;;5000817;28;20275;-67
2024/02/29 07:38:26;;;;;;;26.52;16.73;;;7.90;99.90;;;;;;4999798;28;20288;-62
2024/02/29 07:40:52;;;;;;;27.35;17.02;;;7.90;99.90;;;;;;4997290;28;20188;-67
2024/02/29 07:43:18;;;;;;;23.40;15.98;;;7.90;99.90;;;;;;5001044;28;20235;-70
2024/02/29 07:45:43;;;;;;;29.15;16.90;;;7.90;99.90;;;;;;5005608;28;20231;-69
2024/02/29 07:48:09;;;;;;;26.65;15.95;;;8.00;99.90;;;;;;5020826;28;20231;-63
2024/02/29 07:50:35;;;;;;;25.85;16.13;;;8.00;99.90;;;;;;5020731;28;20652;-66
2024/02/29 07:53:01;;;;;;;26.05;16.60;;;8.00;99.90;;;;;;5035500;28;20204;-65
2024/02/29 07:55:27;;;;;;;24.88;16.42;;;8.00;99.90;;;;;;5023459;28;20203;-63
2024/02/29 07:57:52;;;;;;;27.80;16.85;;;8.10;99.90;;;;;;5040014;28;20203;-64
2024/02/29 08:00:18;;;;;;;29.20;15.80;;;8.10;99.90;;;;;;5039058;28;20878;-62
2024/02/29 08:02:46;;;;;;;23.73;16.33;;;8.10;99.90;;;;;;5038252;28;20175;-63
2024/02/29 08:05:12;;;;;;;23.73;15.65;;;8.10;99.90;;;;;;5038928;28;20184;-65
2024/02/29 08:07:38;;;;;;;26.20;16.55;;;8.10;99.90;;;;;;5022804;28;20220;-63
2024/02/29 08:10:05;;;;;;;28.65;16.85;;;8.10;99.90;;;;;;5022851;28;20180;-65
2024/02/29 08:12:30;;;;;;;26.70;17.05;;;8.20;99.90;;;;;;5023609;28;20211;-64
2024/02/29 08:14:57;;;;;;;26.25;16.63;;;8.20;99.90;;;;;;5022193;28;20196;-64
2024/02/29 08:17:26;;;;;;;26.30;16.20;;;8.20;99.90;;;;;;5024275;28;20286;-65
2024/02/29 08:19:53;;;;;;;24.60;15.80;;;8.30;99.90;;;;;;5024747;28;20196;-66
2024/02/29 08:22:18;;;;;;;22.98;15.25;;;8.30;99.90;;;;;;5023885;28;20295;-64
2024/02/29 08:24:44;;;;;;;25.35;15.43;;;8.40;99.90;;;;;;5023567;28;20302;-67
2024/02/29 08:27:10;;;;;;;25.08;15.45;;;8.40;99.90;;;;;;5023520;28;20307;-65
2024/02/29 08:29:36;;;;;;;29.48;15.93;;;8.40;99.90;;;;;;5039261;28;20190;-65
2024/02/29 08:32:02;;;;;;;22.13;15.48;;;8.40;99.90;;;;;;5024037;28;20250;-65
2024/02/29 08:34:28;;;;;;;20.75;14.52;;;8.40;99.90;;;;;;5023724;28;20196;-64
2024/02/29 08:36:54;;;;;;;23.27;14.77;;;8.50;99.90;;;;;;5024048;28;20202;-64
2024/02/29 08:39:20;;;;;;;24.67;15.80;;;8.50;99.90;;;;;;5023336;28;20192;-64
2024/02/29 08:41:47;;;;;;;24.50;15.30;;;8.50;99.90;;;;;;5023579;28;20203;-63
2024/02/29 08:44:15;;;;;;;24.00;15.93;;;8.60;99.90;;;;;;5023288;28;20678;-63
2024/02/29 08:46:42;;;;;;;25.23;15.98;;;8.60;99.90;;;;;;5023109;28;20857;-63
2024/02/29 08:49:08;;;;;;;25.55;15.93;;;8.60;99.90;;;;;;5023599;28;20204;-65
2024/02/29 08:51:34;;;;;;;24.30;15.30;;;8.60;99.90;;;;;;5023489;28;20919;-64
2024/02/29 08:54:00;;;;;;;23.80;15.25;;;8.60;99.90;;;;;;5020991;28;20244;-66
2024/02/29 08:56:25;;;;;;;23.05;15.65;;;8.60;99.90;;;;;;5023542;28;20195;-64
2024/02/29 08:58:51;;;;;;;23.45;15.52;;;8.70;99.90;;;;;;5034171;28;20200;-65
2024/02/29 09:01:19;;;;;;;25.55;15.75;;;8.70;99.90;;;;;;5023122;28;20564;-65
2024/02/29 09:03:45;;;;;;;22.70;15.32;;;8.70;99.90;;;;;;5023230;28;20702;-65
2024/02/29 09:06:13;;;;;;;22.98;15.77;;;8.70;99.90;;;;;;5022496;28;20196;-63
2024/02/29 09:08:39;;;;;;;24.70;15.85;;;8.80;99.90;;;;;;5022544;28;21140;-63
2024/02/29 09:11:05;;;;;;;24.85;15.68;;;8.80;99.90;;;;;;5023129;28;20374;-63
2024/02/29 09:13:31;;;;;;;20.92;14.90;;;8.80;99.90;;;;;;5023240;28;20617;-64
2024/02/29 09:15:57;;;;;;;25.17;15.00;;;8.80;99.90;;;;;;5022589;28;20184;-64
2024/02/29 09:18:23;;;;;;;22.42;14.68;;;8.90;99.90;;;;;;5022932;28;20191;-65
2024/02/29 09:20:49;;;;;;;22.73;14.82;;;8.90;99.90;;;;;;5023178;28;20228;-64
2024/02/29 09:23:15;;;;;;;24.15;14.88;;;8.90;99.90;;;;;;5023134;28;20192;-65
2024/02/29 09:25:41;;;;;;;21.45;14.10;;;9.00;99.90;;;;;;5037774;28;20192;-65
2024/02/29 09:28:07;;;;;;;22.90;15.07;;;9.00;99.90;;;;;;5022607;28;20204;-65
2024/02/29 09:30:33;;;;;;;20.92;14.23;;;9.10;99.90;;;;;;5022677;28;20619;-62
2024/02/29 09:32:59;;;;;;;25.70;15.77;;;9.10;99.90;;;;;;5022840;28;20184;-65
2024/02/29 09:35:25;;;;;;;20.58;14.52;;;9.10;99.90;;;;;;5023103;28;20188;-66
2024/02/29 09:37:51;;;;;;;20.02;13.88;;;9.10;99.90;;;;;;5022716;28;20222;-63
2024/02/29 09:40:20;;;;;;;20.30;13.68;;;9.20;99.90;;;;;;5037163;28;20191;-65
2024/02/29 09:42:47;;;;;;;22.23;15.07;;;9.20;99.90;;;;;;5022411;28;20596;-65
2024/02/29 09:45:14;;;;;;;20.90;14.25;;;9.20;99.90;;;;;;5021814;28;20210;-65
2024/02/29 09:47:40;;;;;;;23.38;14.27;;;9.30;99.90;;;;;;5022492;28;20318;-66
2024/02/29 09:50:11;;;;;;;21.67;14.80;;;9.30;99.90;;;;;;5022003;28;20196;-64
2024/02/29 09:52:41;;;;;;;20.17;13.35;;;9.30;99.90;;;;;;5037570;28;20214;-66
2024/02/29 09:55:13;;;;;;;21.92;14.48;;;9.30;99.90;;;;;;5035104;28;20180;-67
2024/02/29 09:57:41;;;;;;;24.10;15.20;;;9.30;99.90;;;;;;5022037;28;20184;-65
2024/02/29 10:00:11;;;;;;;19.90;14.02;;;9.30;99.90;;;;;;5022092;28;20262;-64
2024/02/29 10:02:42;;;;;;;22.25;14.40;;;9.30;99.90;;;;;;5022183;28;20187;-64
2024/02/29 10:05:11;;;;;;;25.35;14.10;;;9.30;99.90;;;;;;5022175;28;20878;-66
2024/02/29 10:07:43;;;;;;;21.95;14.98;;;9.30;99.90;;;;;;5036798;28;20281;-63
2024/02/29 10:10:12;;;;;;;21.45;14.75;;;9.30;99.90;;;;;;5021418;28;20231;-63
2024/02/29 10:12:38;;;;;;;24.50;15.73;;;9.30;99.90;;;;;;5021562;28;20242;-64
2024/02/29 10:15:06;;;;;;;25.35;14.88;;;9.30;99.90;;;;;;5021498;28;21614;-63
2024/02/29 10:17:35;;;;;;;21.65;14.45;;;9.30;99.90;;;;;;5035540;28;20242;-66
2024/02/29 10:20:03;;;;;;;27.65;13.77;;;9.40;99.90;;;;;;5036923;28;20227;-65
2024/02/29 10:22:29;;;;;;;20.95;13.30;;;9.40;99.90;;;;;;5021592;28;20188;-65
2024/02/29 10:24:55;;;;;;;18.63;13.57;;;9.40;99.90;;;;;;5009009;28;20195;-62
2024/02/29 10:27:22;;;;;;;21.60;13.65;;;9.40;99.90;;;;;;5021874;28;20223;-65
2024/02/29 10:29:50;;;;;;;19.42;13.60;;;9.40;99.90;;;;;;5021411;28;20204;-64
2024/02/29 10:32:16;;;;;;;22.90;13.27;;;9.40;99.90;;;;;;5020489;28;20184;-65
2024/02/29 10:34:42;;;;;;;20.08;13.43;;;9.40;99.90;;;;;;5035291;28;20196;-64
2024/02/29 10:37:08;;;;;;;22.85;14.65;;;9.50;99.90;;;;;;5020300;28;21368;-64
2024/02/29 10:39:38;;;;;;;23.23;12.73;;;9.40;99.90;;;;;;5021129;28;20266;-65
2024/02/29 10:42:04;;;;;;;20.48;13.10;;;9.50;99.90;;;;;;5036194;28;20302;-65
2024/02/29 10:44:32;;;;;;;19.83;14.05;;;9.50;99.90;;;;;;5021062;28;20207;-65
2024/02/29 10:47:03;;;;;;;18.73;12.57;;;9.60;99.90;;;;;;5021247;28;20302;-65
2024/02/29 10:49:46;;;;;;;18.58;12.45;;;9.60;99.90;;;;;;5020991;28;20196;-64
2024/02/29 10:52:28;;;;;;;20.63;13.63;;;9.60;99.90;;;;;;5021275;28;20632;-64
2024/02/29 10:55:17;;;;;;;20.83;13.43;;;9.60;99.90;;;;;;5021435;28;20948;-65
2024/02/29 10:58:16;;;;;;;19.17;12.25;;;9.60;99.90;;;;;;5020960;28;20645;-65
2024/02/29 11:00:42;;;;;;;19.90;12.85;;;9.60;99.90;;;;;;5021203;28;20667;-65
2024/02/29 11:03:09;;;;;;;24.52;12.93;;;9.70;99.90;;;;;;5021418;28;20235;-62
2024/02/29 11:05:37;;;;;;;16.52;12.00;;;9.70;99.90;;;;;;5021284;28;20226;-64
2024/02/29 11:08:04;;;;;;;22.83;12.75;;;9.80;99.90;;;;;;5019480;28;20235;-66
2024/02/29 11:10:30;;;;;;;22.63;12.30;;;9.80;99.90;;;;;;5020778;28;20200;-64
2024/02/29 11:12:57;;;;;;;19.27;13.00;;;9.80;99.90;;;;;;5020475;28;20653;-65
2024/02/29 11:15:27;;;;;;;18.38;12.60;;;9.70;99.90;;;;;;5021240;28;20485;-64
2024/02/29 11:17:52;;;;;;;19.45;12.55;;;9.80;99.90;;;;;;5020839;28;20210;-65
2024/02/29 11:20:21;;;;;;;20.40;12.23;;;9.70;99.90;;;;;;5020959;28;20192;-65
2024/02/29 11:22:48;;;;;;;24.13;13.98;;;9.70;99.90;;;;;;5021241;28;20266;-65
2024/02/29 11:25:21;;;;;;;21.50;14.45;;;9.70;99.90;;;;;;5020826;28;20197;-65
2024/02/29 11:27:48;;;;;;;20.40;13.27;;;9.80;99.90;;;;;;5020256;28;20239;-63
2024/02/29 11:30:20;;;;;;;28.30;14.82;;;9.80;99.90;;;;;;5035916;28;20682;-65
2024/02/29 11:32:47;;;;;;;20.63;13.55;;;9.90;99.90;;;;;;5020713;28;20195;-64
2024/02/29 11:35:14;;;;;;;17.67;12.73;;;9.90;99.90;;;;;;5035972;28;20187;-64
2024/02/29 11:37:45;;;;;;;18.50;13.02;;;9.90;99.90;;;;;;5020535;28;20192;-65
2024/02/29 11:40:19;;;;;;;21.42;13.75;;;9.90;99.90;;;;;;5032322;28;20265;-64
2024/02/29 11:42:45;;;;;;;23.90;13.18;;;9.90;99.90;;;;;;5021016;28;20191;-64
2024/02/29 11:45:21;;;;;;;18.63;12.18;;;9.90;99.90;;;;;;5020296;28;20667;-64
2024/02/29 11:47:48;;;;;;;21.33;13.45;;;10.00;99.90;;;;;;5019921;28;20211;-66
2024/02/29 11:50:14;;;;;;;23.15;13.07;;;10.00;99.90;;;;;;5020440;28;20184;-63
2024/02/29 11:52:40;;;;;;;21.80;13.65;;;10.00;99.90;;;;;;5020631;28;20203;-65
2024/02/29 11:55:06;;;;;;;24.67;13.90;;;10.00;99.90;;;;;;5020281;28;20188;-64
2024/02/29 11:57:33;;;;;;;20.27;14.07;;;10.10;99.90;;;;;;5020558;28;20188;-63
2024/02/29 11:59:58;;;;;;;21.15;13.68;;;10.10;99.90;;;;;;5020492;28;20196;-63
2024/02/29 12:02:24;;;;;;;26.75;18.50;;;10.10;99.90;;;;;;5020538;28;20188;-64
2024/02/29 12:04:50;;;;;;;22.38;14.48;;;10.00;99.90;;;;;;5020589;28;20187;-64
2024/02/29 12:07:16;;;;;;;21.13;14.07;;;10.00;99.90;;;;;;5009826;28;20310;-63
2024/02/29 12:09:42;;;;;;;24.40;15.27;;;10.00;99.90;;;;;;5016398;28;20756;-65
2024/02/29 12:12:10;;;;;;;23.48;15.23;;;10.00;99.90;;;;;;5020595;28;20180;-64
2024/02/29 12:14:38;;;;;;;20.77;14.35;;;10.00;99.90;;;;;;5020278;28;20561;-65
2024/02/29 12:17:05;;;;;;;23.58;15.07;;;10.10;99.90;;;;;;5020220;28;20275;-64
2024/02/29 12:19:30;;;;;;;23.10;15.85;;;10.10;99.90;;;;;;5020163;28;20211;-63
2024/02/29 12:21:56;;;;;;;25.65;14.98;;;10.10;99.90;;;;;;5019695;28;21033;-64
2024/02/29 12:24:22;;;;;;;25.75;16.20;;;10.20;99.90;;;;;;5020689;28;20188;-66
2024/02/29 12:26:48;;;;;;;30.08;15.90;;;10.30;99.90;;;;;;5033173;28;20216;-64
2024/02/29 12:29:14;;;;;;;28.73;14.77;;;10.30;99.90;;;;;;5020034;28;20191;-65
2024/02/29 12:31:41;;;;;;;26.73;16.67;;;10.30;99.90;;;;;;5020055;28;20184;-64
2024/02/29 12:34:07;;;;;;;26.42;16.40;;;10.20;99.90;;;;;;5020127;28;20665;-64